createdAt,value
2023-03-05T00:03:20.833Z,156
2023-03-05T00:07:02.645Z,168
2023-03-05T00:10:44.696Z,167
2023-03-05T00:14:26.201Z,166
2023-03-05T00:18:08.149Z,153
2023-03-05T00:21:50.028Z,154
2023-03-05T00:25:31.511Z,155
2023-03-05T00:29:13.094Z,174
2023-03-05T00:32:55.000Z,153
2023-03-05T00:36:37.001Z,1527
2023-03-05T00:40:19.238Z,1531
2023-03-05T00:44:00.934Z,1514
2023-03-05T00:47:42.409Z,1479
2023-03-05T00:51:24.024Z,1513
2023-03-05T00:55:05.773Z,1515
2023-03-05T00:58:48.210Z,1536
2023-03-05T01:03:19.206Z,1528
2023-03-05T01:07:00.952Z,3153
2023-03-05T01:10:42.488Z,1506
2023-03-05T01:14:23.901Z,1538
2023-03-05T01:18:05.737Z,1594
2023-03-05T01:21:47.060Z,1590
2023-03-05T01:25:28.249Z,1539
2023-03-05T01:29:09.921Z,1559
2023-03-05T01:32:51.765Z,1583
2023-03-05T01:36:33.490Z,1578
2023-03-05T01:40:14.305Z,1635
2023-03-05T01:43:55.691Z,1508
2023-03-05T01:47:37.553Z,1522
2023-03-05T01:51:19.661Z,1512
2023-03-05T01:55:00.916Z,1068
2023-03-05T01:58:45.444Z,1050
2023-03-05T02:03:18.485Z,1066
2023-03-05T02:07:00.104Z,1026
2023-03-05T02:10:41.634Z,1032
2023-03-05T02:14:22.640Z,1033
2023-03-05T02:18:04.420Z,1038
2023-03-05T02:21:46.075Z,1068
2023-03-05T02:25:27.594Z,1026
2023-03-05T02:29:09.194Z,1031
2023-03-05T02:32:50.914Z,1051
2023-03-05T02:36:32.840Z,1055
2023-03-05T02:40:14.523Z,1064
2023-03-05T02:43:55.152Z,1052
2023-03-05T02:47:37.510Z,1054
2023-03-05T02:51:18.516Z,176
2023-03-05T02:54:59.570Z,136
2023-03-05T02:58:41.163Z,132
2023-03-05T03:03:19.749Z,166
2023-03-05T03:07:00.618Z,138
2023-03-05T03:10:42.237Z,129
2023-03-05T03:14:24.085Z,132
2023-03-05T03:18:05.842Z,127
2023-03-05T03:21:46.996Z,129
2023-03-05T03:25:28.438Z,128
2023-03-05T03:29:09.691Z,128
2023-03-05T03:32:51.955Z,128
2023-03-05T03:36:33.764Z,128
2023-03-05T03:40:14.907Z,126
2023-03-05T03:43:56.341Z,160
2023-03-05T03:47:38.428Z,165
2023-03-05T03:51:19.762Z,164
2023-03-05T03:55:00.747Z,164
2023-03-05T03:58:42.260Z,164
2023-03-05T04:03:19.276Z,164
2023-03-05T04:07:01.687Z,165
2023-03-05T04:10:43.360Z,163
2023-03-05T04:14:24.530Z,162
2023-03-05T04:18:06.544Z,129
2023-03-05T04:21:47.804Z,129
2023-03-05T04:25:28.867Z,130
2023-03-05T04:29:10.030Z,129
2023-03-05T04:32:52.124Z,129
2023-03-05T04:36:33.910Z,129
2023-03-05T04:40:15.511Z,127
2023-03-05T04:43:56.264Z,127
2023-03-05T04:47:38.113Z,126
2023-03-05T04:51:19.620Z,128
2023-03-05T04:55:01.431Z,128
2023-03-05T04:58:42.881Z,146
2023-03-05T05:03:19.189Z,141
2023-03-05T05:08:48.440Z,126
2023-03-05T05:12:30.684Z,125
2023-03-05T05:16:13.403Z,130
2023-03-05T05:19:56.105Z,130
2023-03-05T05:23:37.736Z,110
2023-03-05T05:27:20.066Z,109
2023-03-05T05:31:01.810Z,110
2023-03-05T05:34:44.754Z,110
2023-03-05T05:38:26.915Z,110
2023-03-05T05:42:10.939Z,109
2023-03-05T05:45:53.646Z,110
2023-03-05T05:49:35.974Z,111
2023-03-05T05:53:18.064Z,111
2023-03-05T05:56:59.581Z,111
2023-03-05T06:03:19.572Z,106
2023-03-05T06:07:02.287Z,105
2023-03-05T06:10:44.409Z,124
2023-03-05T06:14:26.493Z,124
2023-03-05T06:18:24.723Z,176
2023-03-05T06:22:06.741Z,177
2023-03-05T06:25:48.749Z,125
2023-03-05T06:29:30.961Z,123
2023-03-05T06:33:13.923Z,123
2023-03-05T06:36:56.226Z,123
2023-03-05T06:40:41.314Z,122
2023-03-05T06:44:23.237Z,126
2023-03-05T06:48:05.736Z,125
2023-03-05T06:51:48.061Z,108
2023-03-05T06:55:30.838Z,108
2023-03-05T06:59:12.761Z,106
2023-03-05T07:03:20.574Z,104
2023-03-05T07:07:02.723Z,1826
2023-03-05T07:10:44.748Z,103
2023-03-05T07:14:28.232Z,103
2023-03-05T07:18:10.596Z,102
2023-03-05T07:21:52.368Z,102
2023-03-05T07:25:34.557Z,102
2023-03-05T07:29:17.197Z,130
2023-03-05T07:32:59.659Z,173
2023-03-05T07:36:42.448Z,121
2023-03-05T07:40:25.082Z,119
2023-03-05T07:44:07.953Z,120
2023-03-05T07:47:52.487Z,119
2023-03-05T07:51:34.419Z,119
2023-03-05T07:55:16.277Z,117
2023-03-05T07:58:58.147Z,117
2023-03-05T08:03:19.954Z,127
2023-03-05T08:07:02.608Z,118
2023-03-05T08:10:44.663Z,98
2023-03-05T08:14:27.025Z,100
2023-03-05T08:18:09.073Z,125
2023-03-05T08:21:51.161Z,104
2023-03-05T08:25:32.482Z,104
2023-03-05T08:29:16.675Z,102
2023-03-05T08:32:59.850Z,112
2023-03-05T08:36:43.068Z,104
2023-03-05T08:40:25.703Z,103
2023-03-05T08:44:08.091Z,103
2023-03-05T08:47:51.057Z,123
2023-03-05T08:51:33.773Z,103
2023-03-05T08:55:15.822Z,103
2023-03-05T08:58:57.641Z,121
2023-03-05T09:03:20.916Z,128
2023-03-05T09:07:02.920Z,118
2023-03-05T09:10:45.499Z,125
2023-03-05T09:14:28.352Z,118
2023-03-05T09:18:11.316Z,138
2023-03-05T09:21:56.663Z,122
2023-03-05T09:25:39.987Z,123
2023-03-05T09:29:23.282Z,123
2023-03-05T09:33:06.398Z,1715
2023-03-05T09:36:49.066Z,110
2023-03-05T09:40:32.041Z,112
2023-03-05T09:44:15.100Z,111
2023-03-05T09:47:58.562Z,1812
2023-03-05T09:51:41.311Z,116
2023-03-05T09:55:24.468Z,677
2023-03-05T09:59:07.820Z,112
2023-03-05T10:03:21.179Z,158
2023-03-05T10:07:04.543Z,110
2023-03-05T10:10:47.497Z,113
2023-03-05T10:14:30.455Z,113
2023-03-05T10:18:16.884Z,131
2023-03-05T10:21:59.776Z,130
2023-03-05T10:25:42.646Z,132
2023-03-05T10:29:29.312Z,137
2023-03-05T10:33:13.273Z,141
2023-03-05T10:36:58.240Z,243
2023-03-05T10:40:41.130Z,126
2023-03-05T10:44:24.049Z,124
2023-03-05T10:48:09.576Z,1771
2023-03-05T10:51:52.227Z,1785
2023-03-05T10:55:34.858Z,103
2023-03-05T10:59:19.923Z,131
2023-03-05T11:03:21.530Z,138
2023-03-05T11:07:03.870Z,129
2023-03-05T11:10:46.453Z,129
2023-03-05T11:14:28.601Z,154
2023-03-05T11:18:13.942Z,173
2023-03-05T11:21:59.549Z,150
2023-03-05T11:25:42.207Z,149
2023-03-05T11:29:34.527Z,123
2023-03-05T11:33:18.857Z,118
2023-03-05T11:37:01.524Z,105
2023-03-05T11:40:44.176Z,138
2023-03-05T11:44:26.495Z,120
2023-03-05T11:48:09.992Z,141
2023-03-05T11:51:52.842Z,119
2023-03-05T11:55:35.481Z,119
2023-03-05T11:59:20.960Z,119
2023-03-05T12:03:21.106Z,128
2023-03-05T12:07:03.697Z,118
2023-03-05T12:10:46.728Z,118
2023-03-05T12:14:32.247Z,118
2023-03-05T12:18:15.477Z,139
2023-03-05T12:21:58.316Z,101
2023-03-05T12:25:41.716Z,105
2023-03-05T12:29:24.132Z,104
2023-03-05T12:33:09.779Z,112
2023-03-05T12:36:53.357Z,105
2023-03-05T12:40:36.769Z,103
2023-03-05T12:44:19.310Z,104
2023-03-05T12:48:02.473Z,125
2023-03-05T12:51:45.014Z,104
2023-03-05T12:55:27.605Z,102
2023-03-05T12:59:10.370Z,102
2023-03-05T13:03:20.825Z,113
2023-03-05T13:07:03.302Z,123
2023-03-05T13:10:45.634Z,118
2023-03-05T13:14:28.685Z,119
2023-03-05T13:18:11.459Z,139
2023-03-05T13:21:53.152Z,118
2023-03-05T13:25:35.774Z,118
2023-03-05T13:29:18.202Z,120
2023-03-05T13:33:01.235Z,129
2023-03-05T13:36:54.215Z,119
2023-03-05T13:40:36.715Z,118
2023-03-05T13:44:19.118Z,99
2023-03-05T13:48:02.405Z,125
2023-03-05T13:51:45.517Z,105
2023-03-05T13:55:28.447Z,103
2023-03-05T13:59:11.686Z,102
2023-03-05T14:03:23.050Z,113
2023-03-05T14:07:07.252Z,104
2023-03-05T14:10:52.006Z,103
2023-03-05T14:14:33.950Z,103
2023-03-05T14:18:18.038Z,122
2023-03-05T14:22:00.808Z,102
2023-03-05T14:25:42.772Z,102
2023-03-05T14:29:25.768Z,121
2023-03-05T14:33:09.325Z,131
2023-03-05T14:36:52.280Z,122
2023-03-05T14:40:35.940Z,119
2023-03-05T14:44:20.699Z,119
2023-03-05T14:48:06.308Z,139
2023-03-05T14:51:51.320Z,119
2023-03-05T14:55:34.641Z,119
2023-03-05T14:59:17.327Z,119
2023-03-05T15:03:20.397Z,128
2023-03-05T15:07:06.508Z,118
2023-03-05T15:10:49.046Z,100
2023-03-05T15:14:31.301Z,100
2023-03-05T15:18:14.482Z,125
2023-03-05T15:21:56.825Z,132
2023-03-05T15:25:39.199Z,127
2023-03-05T15:29:21.576Z,102
2023-03-05T15:33:05.960Z,112
2023-03-05T15:36:48.477Z,104
2023-03-05T15:40:30.673Z,102
2023-03-05T15:44:13.166Z,103
2023-03-05T15:47:55.807Z,124
2023-03-05T15:51:43.386Z,102
2023-03-05T15:55:25.794Z,120
2023-03-05T15:59:09.877Z,122
2023-03-05T16:03:22.699Z,131
2023-03-05T16:07:05.162Z,119
2023-03-05T16:10:48.466Z,119
2023-03-05T16:14:31.018Z,119
2023-03-05T16:18:16.371Z,139
2023-03-05T16:21:58.921Z,118
2023-03-05T16:25:41.207Z,118
2023-03-05T16:29:23.086Z,161
2023-03-05T16:33:06.558Z,147
2023-03-05T16:36:49.119Z,102
2023-03-05T16:40:51.404Z,99
2023-03-05T16:44:47.764Z,99
2023-03-05T16:48:36.493Z,230
2023-03-05T16:52:30.728Z,185
2023-03-05T16:56:15.480Z,191
2023-03-05T16:59:58.943Z,167
2023-03-05T17:03:20.365Z,172
2023-03-05T17:08:50.733Z,187
2023-03-05T17:12:33.108Z,184
2023-03-05T17:16:15.615Z,181
2023-03-05T17:19:57.750Z,207
2023-03-05T17:23:41.468Z,252
2023-03-05T17:27:24.853Z,252
2023-03-05T17:31:06.741Z,214
2023-03-05T17:34:52.402Z,213
2023-03-05T17:38:34.401Z,168
2023-03-05T17:42:16.123Z,179
2023-03-05T17:45:58.621Z,190
2023-03-05T17:49:41.239Z,206
2023-03-05T17:53:22.888Z,239
2023-03-05T17:57:04.736Z,257
2023-03-05T18:03:19.518Z,298
2023-03-05T18:07:02.397Z,249
2023-03-05T18:10:44.230Z,285
2023-03-05T18:14:28.566Z,277
2023-03-05T18:18:11.347Z,296
2023-03-05T18:21:56.368Z,266
2023-03-05T18:25:37.822Z,327
2023-03-05T18:29:24.317Z,326
2023-03-05T18:33:07.793Z,311
2023-03-05T18:36:50.237Z,224
2023-03-05T18:40:32.258Z,241
2023-03-05T18:44:19.733Z,232
2023-03-05T18:48:03.562Z,305
2023-03-05T18:51:46.041Z,294
2023-03-05T18:55:28.274Z,250
2023-03-05T18:59:12.168Z,1922
2023-03-05T19:03:22.558Z,249
2023-03-05T19:07:05.093Z,210
2023-03-05T19:10:48.782Z,211
2023-03-05T19:14:30.666Z,212
2023-03-05T19:18:13.171Z,242
2023-03-05T19:21:55.792Z,206
2023-03-05T19:25:39.402Z,215
2023-03-05T19:29:21.712Z,200
2023-03-05T19:33:05.077Z,221
2023-03-05T19:36:47.008Z,207
2023-03-05T19:40:30.677Z,205
2023-03-05T19:44:12.489Z,259
2023-03-05T19:47:56.070Z,323
2023-03-05T19:51:38.072Z,216
2023-03-05T19:55:20.081Z,220
2023-03-05T19:59:01.999Z,219
2023-03-05T20:03:19.899Z,257
2023-03-05T20:07:02.081Z,320
2023-03-05T20:10:45.092Z,271
2023-03-05T20:14:29.658Z,213
2023-03-05T20:18:14.101Z,261
2023-03-05T20:21:55.715Z,275
2023-03-05T20:25:37.507Z,289
2023-03-05T20:29:21.772Z,246
2023-03-05T20:33:04.618Z,205
2023-03-05T20:36:46.236Z,179
2023-03-05T20:40:27.620Z,201
2023-03-05T20:44:09.176Z,196
2023-03-05T20:47:52.077Z,194
2023-03-05T20:51:32.934Z,206
2023-03-05T20:55:14.750Z,255
2023-03-05T20:58:56.258Z,197
2023-03-05T21:03:18.910Z,208
2023-03-05T21:07:00.218Z,214
2023-03-05T21:10:41.522Z,208
2023-03-05T21:14:23.052Z,252
2023-03-05T21:18:04.792Z,249
2023-03-05T21:21:46.286Z,265
2023-03-05T21:25:27.708Z,328
2023-03-05T21:29:09.653Z,275
2023-03-05T21:32:52.287Z,250
2023-03-05T21:36:35.908Z,177
2023-03-05T21:40:17.255Z,232
2023-03-05T21:43:58.617Z,149
2023-03-05T21:47:40.524Z,167
2023-03-05T21:51:21.919Z,158
2023-03-05T21:55:06.296Z,139
2023-03-05T21:58:47.362Z,131
2023-03-05T22:03:19.707Z,130
2023-03-05T22:07:01.331Z,126
2023-03-05T22:10:42.704Z,127
2023-03-05T22:14:23.812Z,127
2023-03-05T22:18:05.520Z,118
2023-03-05T22:21:47.285Z,176
2023-03-05T22:25:28.964Z,236
2023-03-05T22:29:09.918Z,224
2023-03-05T22:32:52.026Z,227
2023-03-05T22:36:34.404Z,223
2023-03-05T22:40:16.114Z,1927
2023-03-05T22:43:57.261Z,221
2023-03-05T22:47:39.113Z,262
2023-03-05T22:51:22.227Z,226
2023-03-05T22:55:07.234Z,223
2023-03-05T22:58:48.392Z,213
2023-03-05T23:03:19.139Z,225
2023-03-05T23:07:00.236Z,208
2023-03-05T23:10:41.607Z,198
2023-03-05T23:14:22.744Z,180
2023-03-05T23:18:03.676Z,177
2023-03-05T23:21:44.424Z,179
2023-03-05T23:25:25.441Z,180
2023-03-05T23:29:06.695Z,181
2023-03-05T23:32:48.517Z,208
2023-03-05T23:36:29.730Z,204
2023-03-05T23:40:10.501Z,202
2023-03-05T23:43:54.020Z,205
2023-03-05T23:47:35.925Z,178
2023-03-05T23:51:17.481Z,213
2023-03-05T23:54:59.407Z,192
2023-03-05T23:58:40.196Z,177
